KJHW

Chautauqua County / Jamestown Airport

Jamestown, New York, USA
KJHW 200810Z 2008/2106 36014G22KT 1SM -SN BLSN OVC012 FM201800 33016G24KT 2SM -SN BLSN OVC015 FM202300 32012KT 3SM -SHSN BKN015
Issued Valid From Valid To
Jan-20 @ 08:10 UTC
(3 hours ago)
Jan-20 @ 08:00 UTC
(3 hours ago)
Jan-21 @ 06:00 UTC
(in 19 hours)
Jan-20 @ 08:00 to Jan-20 @ 18:00
KJHW 200810Z 2008/2106 36014G22KT 1SM -SN BLSN OVC012
Wind Visibility Clouds Conditions
360° at 14 knots
 Gusting to 22 knots
1 miles
  • Overcast at 1,200' AGL
  • Light Snow
  • Blowing
  • Snow
From Jan-20 @ 18:00 to Jan-20 @ 23:00
FM201800 33016G24KT 2SM -SN BLSN OVC015
Wind Visibility Clouds Conditions
330° at 16 knots
 Gusting to 24 knots
2 miles
  • Overcast at 1,500' AGL
  • Light Snow
  • Blowing
  • Snow
From Jan-20 @ 23:00 to Jan-21 @ 06:00
FM202300 32012KT 3SM -SHSN BKN015
Wind Visibility Clouds Conditions
320° at 12 knots 3 miles
  • Broken at 1,500' AGL
  • Light Snow
KJHW 200810Z 2008/2106 36014G22KT 1SM -SN BLSN OVC012 FM201800 33016G24KT 2SM -SN BLSN OVC015 FM202300 32012KT 3SM -SHSN BKN015
Issued Jan-20 @ 08:10 UTC
(3 hours ago)
Valid From Jan-20 @ 08:00 UTC
(3 hours ago)
Valid To Jan-21 @ 06:00 UTC
(in 19 hours)
Jan-20 @ 08:00 - Jan-20 @ 18:00
Wind Visibility
360° at 14 knots
 Gusting to 22 knots
1 miles
Clouds
  • Overcast at 1,200' AGL
Conditions
  • Light Snow
  • Blowing
  • Snow
From Jan-20 @ 18:00 - Jan-20 @ 23:00
Wind Visibility
330° at 16 knots
 Gusting to 24 knots
2 miles
Clouds
  • Overcast at 1,500' AGL
Conditions
  • Light Snow
  • Blowing
  • Snow
From Jan-20 @ 23:00 - Jan-21 @ 06:00
Wind Visibility
320° at 12 knots 3 miles
Clouds
  • Broken at 1,500' AGL
Conditions
  • Light Snow